Time;durP1;ratioP1;P1;durP2;ratioP2;P2;SDS_P1;SDS_P2;PMS_P1;PMS_P2;Temp;Humidity;BMP_temperature;BMP_pressure;BME280_temperature;BME280_humidity;BME280_pressure;Samples;Min_cycle;Max_cycle;Signal;HPM_P1;HPM_P2
2022/01/23 00:01:09;;;;;;;18.83;13.97;;;8.00;1.00;8.40;68119.00;;;;5047449;28;20463;-81
2022/01/23 00:03:44;;;;;;;18.00;13.37;;;8.20;1.00;8.40;68118.00;;;;5048025;28;20554;-81
2022/01/23 00:06:16;;;;;;;18.10;14.30;;;7.90;1.00;8.40;102032.00;;;;5057404;28;20466;-81
2022/01/23 00:08:49;;;;;;;19.53;14.00;;;7.90;1.00;8.40;102031.00;;;;5054603;28;20480;-79
2022/01/23 00:11:21;;;;;;;17.67;12.30;;;8.00;1.00;8.50;68135.00;;;;5072453;28;20548;-80
2022/01/23 00:19:37;;;;;;;18.87;13.90;;;8.20;1.00;8.40;68126.00;;;;5016513;28;20516;-80
2022/01/23 00:22:08;;;;;;;18.43;14.70;;;7.90;1.00;8.40;102025.00;;;;5034151;28;20925;-80
2022/01/23 00:30:29;;;;;;;20.30;14.73;;;8.00;1.00;8.50;102008.00;;;;5054745;28;20444;-81
2022/01/23 00:33:01;;;;;;;18.43;14.20;;;8.00;1.00;217.30;160341.00;;;;5065714;28;20957;-81
2022/01/23 00:35:31;;;;;;;17.43;13.20;;;8.10;1.00;8.50;68135.00;;;;5051443;28;20468;-80
2022/01/23 00:38:02;;;;;;;19.20;15.20;;;8.10;1.00;8.40;101999.00;;;;5051466;28;20964;-80
2022/01/23 00:40:36;;;;;;;17.80;14.93;;;8.00;1.00;52.70;160291.00;;;;5054118;28;20785;-81
2022/01/23 00:43:13;;;;;;;19.23;14.00;;;8.00;1.00;8.40;68129.00;;;;5069736;28;20482;-81
2022/01/23 00:45:46;;;;;;;21.53;15.57;;;8.00;1.00;8.40;101993.00;;;;5051707;28;20560;-80
2022/01/23 00:48:16;;;;;;;18.97;14.77;;;8.00;1.00;8.40;68126.00;;;;5055060;28;20464;-79
2022/01/23 00:50:46;;;;;;;20.50;15.70;;;8.00;1.00;8.40;102013.00;;;;5048717;28;20964;-79
2022/01/23 00:53:15;;;;;;;20.27;14.17;;;8.00;1.00;8.50;102021.00;;;;5059130;28;20468;-82
2022/01/23 00:55:47;;;;;;;19.23;14.47;;;8.00;1.00;8.50;102028.00;;;;5057071;28;20463;-81
2022/01/23 00:58:16;;;;;;;21.53;15.10;;;8.00;1.00;8.50;68143.00;;;;5065111;28;20799;-81
2022/01/23 01:00:45;;;;;;;21.47;14.80;;;8.00;1.00;52.70;160317.00;;;;5082220;28;20451;-81
2022/01/23 01:03:14;;;;;;;19.77;14.77;;;8.20;1.00;217.30;160357.00;;;;5067468;28;20464;-81
2022/01/23 01:05:43;;;;;;;19.77;15.10;;;8.10;1.00;8.50;102033.00;;;;5049239;28;20475;-79
2022/01/23 01:08:11;;;;;;;21.87;16.80;;;8.10;1.00;8.50;68149.00;;;;5047773;28;20453;-79
2022/01/23 01:10:48;;;;;;;19.60;15.50;;;8.10;1.00;8.60;68143.00;;;;5067528;28;20468;-78
2022/01/23 01:13:18;;;;;;;19.07;15.17;;;8.20;1.00;8.70;68176.00;;;;5075327;28;20474;-79
2022/01/23 01:32:41;;;;;;;19.27;14.50;;;8.20;1.00;8.60;68158.00;;;;5067329;28;20437;-80
2022/01/23 01:35:20;;;;;;;22.77;16.80;;;8.10;1.00;8.50;102005.00;;;;5060637;28;20469;-80
2022/01/23 01:37:49;;;;;;;21.87;15.63;;;8.00;1.00;217.30;160341.00;;;;5057888;28;20465;-81
2022/01/23 01:40:19;;;;;;;22.30;16.57;;;8.00;1.00;217.30;160341.00;;;;5036349;28;20836;-81
2022/01/23 01:42:47;;;;;;;23.30;16.37;;;8.00;1.00;8.50;102005.00;;;;5030337;28;20503;-80
2022/01/23 01:45:24;;;;;;;20.87;16.20;;;8.10;1.00;8.50;102004.00;;;;5054578;28;20495;-79
2022/01/23 01:48:01;;;;;;;23.67;16.30;;;8.10;1.00;8.60;102016.00;;;;5035737;28;20461;-81
2022/01/23 01:50:32;;;;;;;24.60;17.23;;;8.20;1.00;8.60;101992.00;;;;5052946;28;20473;-80
2022/01/23 01:53:05;;;;;;;22.10;16.63;;;8.20;1.00;8.60;68165.00;;;;5032201;28;20484;-79
2022/01/23 01:55:41;;;;;;;23.03;16.73;;;8.30;1.00;8.60;102005.00;;;;5033720;28;20974;-80
2022/01/23 01:58:33;;;;;;;22.50;16.80;;;8.20;1.00;8.50;68152.00;;;;5038666;28;20472;-81
2022/01/23 02:09:55;;;;;;;24.40;17.40;;;8.00;1.00;8.50;68135.00;;;;5054354;28;20459;-79
2022/01/23 02:24:11;;;;;;;23.00;16.63;;;8.10;1.00;8.60;68160.00;;;;5044582;28;20464;-83
2022/01/23 02:51:57;;;;;;;23.80;17.70;;;8.30;1.00;8.80;102028.00;;;;5055800;28;20544;-82
2022/01/23 02:54:43;;;;;;;23.50;18.03;;;8.30;1.00;8.80;102030.00;;;;5029485;28;21000;-83
2022/01/23 02:57:20;;;;;;;24.93;17.60;;;8.30;1.00;8.80;102026.00;;;;5046030;28;20561;-82
2022/01/23 02:59:51;;;;;;;24.70;17.77;;;8.40;1.00;8.80;102020.00;;;;5021894;28;20453;-83
2022/01/23 03:02:45;;;;;;;23.70;17.47;;;8.40;1.00;52.70;160472.00;;;;5029678;28;20452;-84
2022/01/23 03:05:39;;;;;;;23.13;17.57;;;8.40;1.00;8.80;102020.00;;;;5032487;28;20543;-83
2022/01/23 03:08:23;;;;;;;25.40;18.90;;;8.30;1.00;8.80;102027.00;;;;5035794;28;20466;-81
2022/01/23 03:11:02;;;;;;;24.67;17.93;;;8.30;1.00;8.70;102019.00;;;;5024430;28;20452;-79
2022/01/23 03:13:48;;;;;;;26.20;18.73;;;8.30;1.00;8.70;102013.00;;;;5022788;28;20511;-82
2022/01/23 03:24:05;;;;;;;23.60;17.40;;;8.00;1.00;8.70;102015.00;;;;5031919;28;20449;-83
2022/01/23 03:24:50;;;;;;;25.03;18.77;;;8.10;1.00;8.60;102029.00;;;;4976600;28;21198;-82
2022/01/23 03:27:48;;;;;;;28.03;19.40;;;7.90;1.00;8.50;68148.00;;;;5019231;28;20475;-80
2022/01/23 03:30:20;;;;;;;27.73;19.67;;;7.70;1.00;8.60;102003.00;;;;5032491;28;20469;-82
2022/01/23 03:32:50;;;;;;;26.90;20.20;;;7.90;1.00;52.70;160377.00;;;;5058222;28;20476;-83
2022/01/23 03:35:21;;;;;;;28.10;19.60;;;7.90;1.00;8.60;102007.00;;;;5038917;28;20453;-81
2022/01/23 03:37:50;;;;;;;30.23;20.63;;;7.80;1.00;8.60;102020.00;;;;5036828;28;20457;-83
2022/01/23 03:40:21;;;;;;;28.27;19.60;;;8.00;1.00;8.70;102010.00;;;;5043063;28;20459;-82
2022/01/23 03:42:57;;;;;;;28.90;19.70;;;8.00;1.00;52.70;160414.00;;;;5043630;28;20542;-83
2022/01/23 03:45:52;;;;;;;25.87;19.10;;;8.00;1.00;8.60;102024.00;;;;5048519;28;20472;-83
2022/01/23 03:51:06;;;;;;;29.10;21.77;;;7.90;1.00;8.50;102014.00;;;;5029689;28;20555;-82
2022/01/23 03:53:42;;;;;;;30.13;19.87;;;7.80;1.00;8.40;68134.00;;;;5028527;28;20561;-82
2022/01/23 03:56:10;;;;;;;28.97;21.07;;;7.90;1.00;8.30;102007.00;;;;5025124;28;20452;-81
2022/01/23 03:58:43;;;;;;;29.07;19.97;;;7.90;1.00;8.40;102010.00;;;;5027568;28;20583;-83
2022/01/23 04:01:19;;;;;;;31.40;19.93;;;7.80;1.00;8.40;102017.00;;;;5028848;28;20453;-83
2022/01/23 04:03:50;;;;;;;28.90;19.87;;;7.70;1.00;8.40;102014.00;;;;5025309;28;20963;-83
2022/01/23 04:06:18;;;;;;;31.80;22.50;;;7.70;1.00;8.30;102031.00;;;;5043691;28;21607;-83
2022/01/23 04:08:48;;;;;;;33.47;23.50;;;7.80;1.00;8.30;102028.00;;;;5029922;28;20480;-82
2022/01/23 04:11:19;;;;;;;31.63;20.97;;;7.80;1.00;8.30;68102.00;;;;5045110;28;20450;-82
2022/01/23 04:13:54;;;;;;;32.67;22.27;;;7.70;1.00;8.30;68107.00;;;;5044068;28;20487;-83
2022/01/23 04:19:33;;;;;;;30.87;23.40;;;7.80;1.00;8.30;68110.00;;;;5028965;28;20537;-82
2022/01/23 04:33:29;;;;;;;34.50;23.47;;;7.60;1.00;8.30;102031.00;;;;5042798;28;20850;-82
2022/01/23 05:01:03;;;;;;;32.03;21.27;;;7.90;1.00;8.20;102049.00;;;;5043168;28;20461;-82
2022/01/23 05:07:00;;;;;;;35.90;24.53;;;7.80;1.00;8.20;102050.00;;;;5019783;28;20491;-82
2022/01/23 05:09:58;;;;;;;35.03;24.83;;;7.70;1.00;8.20;102052.00;;;;5022793;28;20475;-82
2022/01/23 05:12:36;;;;;;;30.50;20.40;;;7.70;1.00;8.30;102052.00;;;;5032956;28;20463;-82
2022/01/23 05:15:07;;;;;;;32.13;21.30;;;7.80;1.00;8.20;102058.00;;;;5023763;28;21532;-82
2022/01/23 05:17:35;;;;;;;32.33;21.90;;;7.80;1.00;8.20;68076.00;;;;5043221;28;20568;-82
2022/01/23 05:20:07;;;;;;;32.27;22.10;;;7.70;1.00;8.20;102049.00;;;;5021407;28;20453;-81
2022/01/23 05:22:39;;;;;;;32.03;21.67;;;7.70;1.00;8.20;102059.00;;;;5040915;28;20465;-81
2022/01/23 05:25:14;;;;;;;33.40;22.07;;;7.70;1.00;8.20;102045.00;;;;5021945;28;20456;-82
2022/01/23 05:27:43;;;;;;;31.43;19.67;;;7.70;1.00;8.10;102054.00;;;;5027256;28;20464;-83
2022/01/23 05:30:12;;;;;;;28.80;19.40;;;7.70;1.00;8.10;102057.00;;;;5034508;28;20935;-82
2022/01/23 05:32:42;;;;;;;25.53;18.53;;;7.60;1.00;8.10;102066.00;;;;5033231;28;20471;-82
2022/01/23 05:35:14;;;;;;;28.03;19.33;;;7.50;1.00;8.10;102069.00;;;;5057352;28;20460;-82
2022/01/23 05:37:43;;;;;;;28.40;19.50;;;7.50;1.00;8.00;102072.00;;;;5063526;28;20490;-82
2022/01/23 05:40:19;;;;;;;28.97;19.07;;;7.40;1.00;8.10;102052.00;;;;5066970;28;20461;-82
2022/01/23 05:42:52;;;;;;;29.63;20.80;;;7.40;1.00;8.10;102163.00;;;;5064292;28;20481;-82
2022/01/23 05:45:21;;;;;;;27.47;19.50;;;7.40;1.00;8.10;102079.00;;;;5049577;28;20453;-82
2022/01/23 05:48:09;;;;;;;26.90;19.20;;;7.50;1.00;8.10;102067.00;;;;5027588;28;21103;-81
2022/01/23 05:50:54;;;;;;;26.63;18.10;;;7.50;1.00;8.10;102065.00;;;;5022627;28;20822;-81
2022/01/23 05:53:36;;;;;;;25.87;18.97;;;7.60;1.00;8.20;102068.00;;;;5027128;28;20556;-82
2022/01/23 05:56:31;;;;;;;27.53;19.83;;;7.60;1.00;8.20;102063.00;;;;5027492;28;20461;-81
2022/01/23 05:58:59;;;;;;;26.30;18.67;;;7.50;1.00;8.20;102055.00;;;;5042439;28;20445;-81
2022/01/23 06:01:31;;;;;;;27.30;19.17;;;7.50;1.00;8.20;102062.00;;;;5065069;28;20455;-82
2022/01/23 06:04:27;;;;;;;26.43;19.60;;;7.50;1.00;8.30;102062.00;;;;5028195;28;20484;-82
2022/01/23 06:07:09;;;;;;;26.67;18.07;;;7.50;1.00;8.30;102066.00;;;;5028489;28;20509;-84
2022/01/23 06:09:46;;;;;;;25.60;19.30;;;7.60;1.00;8.30;102068.00;;;;5052027;28;20457;-82
2022/01/23 06:12:15;;;;;;;24.30;17.73;;;7.70;1.00;8.40;102079.00;;;;5030131;28;20450;-82
2022/01/23 06:14:43;;;;;;;27.07;20.20;;;7.80;1.00;8.40;102075.00;;;;5037863;28;20477;-82
2022/01/23 06:17:11;;;;;;;26.63;19.70;;;7.70;1.00;8.40;102060.00;;;;5044392;28;20501;-82
2022/01/23 06:19:58;;;;;;;26.63;18.87;;;7.70;1.00;8.50;102074.00;;;;5040279;28;20487;-82
2022/01/23 06:22:48;;;;;;;27.93;19.63;;;7.90;1.00;8.50;102083.00;;;;4992930;28;20507;-81
2022/01/23 06:25:37;;;;;;;30.03;20.77;;;8.00;1.00;8.60;102068.00;;;;5017672;28;20465;-83
2022/01/23 06:28:29;;;;;;;28.60;20.33;;;8.10;1.00;8.60;102065.00;;;;5022222;28;20481;-83
2022/01/23 06:31:00;;;;;;;28.20;20.70;;;8.20;1.00;8.70;102080.00;;;;5023908;28;20982;-82
2022/01/23 06:33:31;;;;;;;27.43;19.80;;;8.30;1.00;8.60;102088.00;;;;5023279;28;20485;-82
2022/01/23 06:35:59;;;;;;;30.57;22.30;;;8.20;1.00;8.60;102086.00;;;;5037685;28;20465;-82
2022/01/23 06:38:29;;;;;;;33.70;21.80;;;8.10;1.00;8.60;102085.00;;;;5018716;28;20469;-83
2022/01/23 06:40:57;;;;;;;32.00;21.90;;;8.10;1.00;8.60;102088.00;;;;5021593;28;20449;-83
2022/01/23 06:43:47;;;;;;;32.70;23.07;;;8.00;1.00;8.60;102105.00;;;;5039084;28;20465;-82
2022/01/23 06:46:23;;;;;;;31.40;21.33;;;8.00;1.00;217.30;160389.00;;;;5033601;28;20486;-81
2022/01/23 06:48:51;;;;;;;32.23;21.43;;;8.00;1.00;8.60;102108.00;;;;5033452;28;20491;-81
2022/01/23 06:51:20;;;;;;;28.20;21.20;;;8.10;1.00;8.60;102103.00;;;;5021352;28;20461;-80
2022/01/23 06:53:51;;;;;;;32.37;21.37;;;8.00;1.00;8.60;102100.00;;;;5041847;28;20501;-81
2022/01/23 06:56:20;;;;;;;34.97;24.00;;;8.10;1.00;8.60;102221.00;;;;5040654;28;20460;-81
2022/01/23 06:58:49;;;;;;;31.13;21.80;;;8.10;1.00;8.60;102118.00;;;;5037350;28;20505;-81
2022/01/23 07:01:18;;;;;;;29.10;20.53;;;8.10;1.00;217.30;160398.00;;;;5015791;28;20457;-81
2022/01/23 07:03:56;;;;;;;30.07;20.87;;;8.10;1.00;8.60;102136.00;;;;5038141;28;20476;-81
2022/01/23 07:06:38;;;;;;;32.90;22.90;;;8.10;1.00;8.60;102139.00;;;;5041193;28;20570;-82
2022/01/23 07:09:33;;;;;;;29.03;21.40;;;8.10;1.00;8.60;102128.00;;;;5007754;28;20460;-81
2022/01/23 07:12:20;;;;;;;33.43;22.70;;;8.00;1.00;8.60;102132.00;;;;5020000;28;20524;-81
2022/01/23 07:15:12;;;;;;;28.80;20.97;;;8.10;1.00;8.60;102139.00;;;;5032709;28;20515;-82
2022/01/23 07:18:01;;;;;;;34.00;24.20;;;8.00;1.00;8.60;102150.00;;;;5030738;28;20464;-82
2022/01/23 07:20:32;;;;;;;34.20;22.47;;;8.00;1.00;8.60;102133.00;;;;5028484;28;20449;-82
2022/01/23 07:23:08;;;;;;;35.40;25.10;;;8.00;1.00;8.60;102151.00;;;;5053433;28;20485;-81
2022/01/23 07:25:39;;;;;;;33.73;23.47;;;8.10;1.00;8.60;102152.00;;;;5045222;28;20484;-82
2022/01/23 07:28:12;;;;;;;35.47;23.07;;;8.20;1.00;8.70;102158.00;;;;5025409;28;21565;-82
2022/01/23 07:30:47;;;;;;;32.47;23.07;;;8.10;1.00;8.70;102165.00;;;;5041671;28;20457;-82
2022/01/23 07:33:16;;;;;;;33.90;23.30;;;8.20;1.00;8.70;102172.00;;;;5029453;28;20564;-81
2022/01/23 07:35:44;;;;;;;36.27;23.20;;;8.10;1.00;8.70;68179.00;;;;5031816;28;21064;-81
2022/01/23 07:38:16;;;;;;;33.73;23.93;;;8.20;1.00;8.70;102165.00;;;;5043900;28;20525;-82
2022/01/23 07:41:04;;;;;;;36.77;24.00;;;8.20;1.00;8.80;102173.00;;;;5025824;28;20484;-81
2022/01/23 07:43:43;;;;;;;34.93;24.30;;;8.20;1.00;8.80;68207.00;;;;5029134;28;20486;-81
2022/01/23 07:46:31;;;;;;;34.73;23.00;;;8.30;1.00;8.80;102177.00;;;;5026052;28;20472;-81
2022/01/23 07:49:23;;;;;;;38.10;27.13;;;8.20;1.00;8.80;102180.00;;;;5029551;28;20456;-82
2022/01/23 07:52:07;;;;;;;34.30;22.20;;;8.20;1.00;8.80;68207.00;;;;5024312;28;20461;-82
2022/01/23 07:54:40;;;;;;;32.90;23.00;;;8.20;1.00;8.80;102173.00;;;;5044798;28;20466;-82
2022/01/23 07:57:30;;;;;;;34.67;22.80;;;8.10;1.00;8.80;102185.00;;;;5033396;28;20466;-81
2022/01/23 08:00:20;;;;;;;32.60;22.97;;;8.20;1.00;8.90;102214.00;;;;5024645;28;20453;-82
2022/01/23 08:02:48;;;;;;;34.77;23.83;;;8.20;1.00;8.90;102189.00;;;;5019276;28;20476;-82
2022/01/23 08:05:35;;;;;;;33.67;22.47;;;8.40;1.00;9.00;102195.00;;;;5020014;28;20452;-82
2022/01/23 08:08:39;;;;;;;33.33;23.23;;;8.40;1.00;8.90;102191.00;;;;5021765;28;20476;-82
2022/01/23 08:11:08;;;;;;;35.03;22.20;;;8.20;1.00;9.00;102198.00;;;;5014105;28;20489;-82
2022/01/23 08:13:38;;;;;;;35.20;22.83;;;8.20;1.00;9.00;68264.00;;;;5017126;28;20479;-82
2022/01/23 08:16:06;;;;;;;38.20;24.23;;;8.30;1.00;217.30;160593.00;;;;5021974;28;21380;-82
2022/01/23 08:18:35;;;;;;;38.70;24.73;;;8.40;1.00;217.30;160626.00;;;;5022256;28;20835;-81
2022/01/23 08:21:03;;;;;;;34.73;23.83;;;8.50;1.00;9.20;68305.00;;;;5043765;28;20452;-82
2022/01/23 08:23:32;;;;;;;37.87;25.27;;;8.60;1.00;9.30;102201.00;;;;5042312;28;20798;-82
2022/01/23 08:26:01;;;;;;;36.57;25.23;;;8.60;1.00;9.30;102173.00;;;;5024599;28;20525;-82
2022/01/23 08:28:30;;;;;;;36.63;25.90;;;8.80;1.00;9.40;68351.00;;;;5030739;28;20513;-82
2022/01/23 08:30:59;;;;;;;40.47;25.50;;;8.80;1.00;9.50;102204.00;;;;5032345;28;20557;-82
2022/01/23 08:33:28;;;;;;;37.50;24.90;;;9.00;1.00;9.50;68373.00;;;;5031758;28;20503;-82
2022/01/23 08:35:57;;;;;;;39.97;26.80;;;9.00;1.00;9.50;68357.00;;;;5032658;28;20444;-82
2022/01/23 08:38:26;;;;;;;39.57;25.73;;;8.90;1.00;9.60;102208.00;;;;5034956;28;20466;-82
2022/01/23 08:43:37;;;;;;;41.30;25.77;;;9.00;1.00;9.80;102214.00;;;;5038169;28;20542;-82
2022/01/23 08:46:09;;;;;;;37.83;25.63;;;9.10;1.00;9.80;102216.00;;;;5030298;28;21288;-83
2022/01/23 08:48:37;;;;;;;44.03;25.80;;;9.30;1.00;9.80;68439.00;;;;5035710;28;20480;-82
2022/01/23 08:51:06;;;;;;;39.43;25.10;;;9.30;1.00;9.90;68451.00;;;;5028257;28;20826;-81
2022/01/23 08:53:35;;;;;;;39.47;25.60;;;9.40;1.00;9.90;102204.00;;;;5025751;28;21016;-83
2022/01/23 08:56:04;;;;;;;38.37;24.70;;;9.30;1.00;9.90;102207.00;;;;5031300;28;20455;-83
2022/01/23 08:58:32;;;;;;;35.67;23.83;;;9.40;1.00;10.00;102208.00;;;;5023529;28;20449;-82
2022/01/23 09:01:01;;;;;;;33.60;22.60;;;9.50;1.00;10.00;68479.00;;;;5031035;28;20997;-82
2022/01/23 09:03:31;;;;;;;32.57;22.70;;;9.50;1.00;52.70;161013.00;;;;5038679;28;20476;-82
2022/01/23 09:05:59;;;;;;;31.47;22.00;;;9.50;1.00;10.10;102198.00;;;;5039268;28;20571;-82
2022/01/23 09:08:27;;;;;;;28.87;20.70;;;9.40;1.00;10.10;102192.00;;;;5057244;28;20863;-81
2022/01/23 09:10:58;;;;;;;27.50;18.27;;;9.50;1.00;10.00;102195.00;;;;5033256;28;20600;-83
2022/01/23 09:13:51;;;;;;;32.70;21.40;;;9.40;1.00;10.10;102191.00;;;;5036675;28;20503;-82
2022/01/23 09:16:20;;;;;;;23.53;16.60;;;9.60;1.00;10.10;102178.00;;;;5035756;28;20465;-82
2022/01/23 09:18:50;;;;;;;23.67;17.20;;;9.50;1.00;10.10;102183.00;;;;5033845;28;20461;-81
2022/01/23 09:21:19;;;;;;;22.93;17.07;;;9.50;1.00;10.20;102199.00;;;;5028968;28;20509;-82
2022/01/23 09:23:47;;;;;;;23.33;14.97;;;9.50;1.00;10.20;102196.00;;;;5037084;28;20874;-83
2022/01/23 09:26:18;;;;;;;25.83;18.27;;;9.60;1.00;10.30;102181.00;;;;5046167;28;20532;-81
2022/01/23 09:28:48;;;;;;;24.00;16.77;;;9.80;1.00;10.40;102189.00;;;;5059990;28;20627;-81
2022/01/23 09:31:27;;;;;;;26.87;17.90;;;9.90;1.00;10.40;102163.00;;;;5039106;28;20565;-81
2022/01/23 09:33:57;;;;;;;21.60;15.90;;;10.00;1.00;10.50;68587.00;;;;5034451;28;20527;-82
2022/01/23 09:36:27;;;;;;;25.87;17.10;;;10.10;1.00;10.60;102183.00;;;;5038565;28;20536;-82
2022/01/23 09:38:56;;;;;;;22.63;16.23;;;10.20;1.00;10.70;102176.00;;;;5063585;28;20484;-82
2022/01/23 09:41:30;;;;;;;19.30;14.03;;;10.30;1.00;10.80;102175.00;;;;5044172;28;20471;-83
2022/01/23 09:44:02;;;;;;;21.20;15.67;;;10.30;1.00;217.30;161348.00;;;;5039542;28;20480;-82
2022/01/23 09:46:30;;;;;;;22.30;15.73;;;10.30;1.00;10.90;102177.00;;;;5053943;28;20464;-83
2022/01/23 09:49:01;;;;;;;21.27;14.50;;;10.40;1.00;10.90;102177.00;;;;5041308;28;20473;-83
2022/01/23 09:51:31;;;;;;;17.67;13.53;;;10.40;1.00;10.70;102183.00;;;;5044708;28;20469;-82
2022/01/23 09:53:59;;;;;;;18.17;13.83;;;10.20;1.00;217.30;161333.00;;;;5045955;28;20511;-82
2022/01/23 09:56:33;;;;;;;18.50;13.30;;;10.20;1.00;10.80;102176.00;;;;5067815;28;20437;-83
2022/01/23 09:59:02;;;;;;;21.00;15.83;;;10.30;1.00;10.80;102178.00;;;;5043884;28;20515;-83
2022/01/23 10:01:31;;;;;;;16.43;13.50;;;10.40;1.00;10.90;102185.00;;;;5036703;28;20520;-82
2022/01/23 10:04:01;;;;;;;17.77;13.23;;;10.40;1.00;10.90;102190.00;;;;5053956;28;20905;-82
2022/01/23 10:06:30;;;;;;;17.30;13.23;;;10.40;1.00;11.00;102192.00;;;;5033178;28;20456;-83
2022/01/23 10:09:00;;;;;;;16.30;11.83;;;10.50;1.00;11.00;102192.00;;;;5036234;28;20532;-82
2022/01/23 10:11:35;;;;;;;16.07;11.70;;;10.50;1.00;10.90;102194.00;;;;5035239;28;20460;-81
2022/01/23 10:14:04;;;;;;;15.27;10.73;;;10.40;1.00;10.90;102201.00;;;;5042817;28;21271;-83
2022/01/23 10:16:34;;;;;;;11.63;7.70;;;10.40;1.00;11.00;68692.00;;;;5036670;28;20485;-82
2022/01/23 10:19:04;;;;;;;10.80;8.10;;;10.40;1.00;217.30;161408.00;;;;5033691;28;20565;-84
2022/01/23 10:21:38;;;;;;;12.33;8.00;;;10.40;1.00;11.00;102183.00;;;;5032478;28;20440;-82
2022/01/23 10:24:09;;;;;;;13.00;10.20;;;10.30;1.00;11.10;102196.00;;;;5033462;28;20485;-85
2022/01/23 10:26:46;;;;;;;18.27;9.70;;;10.40;1.00;11.30;102385.00;;;;5036758;28;20483;-83
2022/01/23 10:29:19;;;;;;;13.90;9.50;;;10.60;1.00;11.30;102385.00;;;;5035781;28;20600;-83
2022/01/23 10:32:10;;;;;;;18.63;8.30;;;10.70;1.00;11.40;102396.00;;;;5036026;28;20863;-83
2022/01/23 10:34:54;;;;;;;12.47;8.07;;;11.00;1.00;11.30;102378.00;;;;5036423;28;20501;-83
2022/01/23 10:37:34;;;;;;;11.20;6.97;;;10.90;1.00;11.40;102373.00;;;;5036808;28;20721;-85
2022/01/23 10:40:13;;;;;;;11.73;7.47;;;10.80;1.00;11.60;102378.00;;;;5036713;28;20452;-82
2022/01/23 10:46:38;;;;;;;6.90;5.30;;;11.00;1.00;11.70;102384.00;;;;5035790;28;20753;-83
2022/01/23 10:48:46;;;;;;;6.00;4.93;;;11.20;1.00;11.70;68852.00;;;;5041090;28;20534;-82
2022/01/23 10:51:26;;;;;;;7.20;5.37;;;11.10;1.00;11.70;102375.00;;;;5031556;28;20914;-83
2022/01/23 10:54:15;;;;;;;8.53;5.80;;;11.10;1.00;11.70;102366.00;;;;5052854;28;20484;-83
2022/01/23 10:57:03;;;;;;;8.63;5.00;;;11.30;1.00;11.70;102361.00;;;;5027273;28;20520;-84
2022/01/23 10:59:52;;;;;;;6.27;4.53;;;11.20;1.00;11.50;102375.00;;;;5031930;28;21415;-83
2022/01/23 11:02:26;;;;;;;8.80;5.27;;;10.90;1.00;11.60;102367.00;;;;5038341;28;20441;-83
2022/01/23 11:04:59;;;;;;;6.87;4.60;;;11.00;1.00;217.30;161652.00;;;;5056943;28;20456;-83
2022/01/23 11:07:31;;;;;;;8.13;6.00;;;11.20;1.00;11.50;102361.00;;;;5036528;28;20496;-83
2022/01/23 11:10:04;;;;;;;4.30;3.40;;;11.10;1.00;11.50;102368.00;;;;5058705;28;20466;-82
2022/01/23 11:18:23;;;;;;;3.90;2.70;;;11.10;1.00;12.00;102352.00;;;;5020127;28;20897;-82
2022/01/23 11:20:52;;;;;;;4.33;2.87;;;11.30;1.00;12.10;102358.00;;;;5027711;28;20523;-82
2022/01/23 11:23:30;;;;;;;4.50;2.80;;;11.30;1.00;12.20;102360.00;;;;5029054;28;20547;-83
2022/01/23 11:26:12;;;;;;;7.80;3.40;;;11.60;1.00;12.10;68934.00;;;;5027057;28;20453;-81
2022/01/23 11:28:46;;;;;;;4.47;3.10;;;11.50;1.00;12.20;102359.00;;;;5032109;28;20557;-84
2022/01/23 11:31:18;;;;;;;7.63;3.10;;;11.50;1.00;12.20;102348.00;;;;5028264;28;21338;-83
2022/01/23 11:33:50;;;;;;;4.70;2.97;;;11.60;1.00;12.30;102344.00;;;;5028964;28;20488;-83
2022/01/23 11:36:21;;;;;;;4.43;2.20;;;11.70;1.00;12.30;102343.00;;;;5033646;28;20466;-82
2022/01/23 11:38:54;;;;;;;4.83;3.63;;;11.70;1.00;12.10;102340.00;;;;5031963;28;20429;-83
2022/01/23 11:55:41;;;;;;;4.70;3.37;;;11.00;1.00;11.60;102337.00;;;;5026801;28;21076;-81
2022/01/23 11:58:37;;;;;;;9.80;5.70;;;10.90;1.00;11.60;102331.00;;;;5023167;28;20863;-82
2022/01/23 12:01:19;;;;;;;3.83;3.40;;;10.80;1.00;11.50;102322.00;;;;5023714;28;20467;-82
2022/01/23 12:04:16;;;;;;;5.30;3.70;;;10.60;1.00;11.40;102326.00;;;;5039450;28;20855;-82
2022/01/23 12:07:21;;;;;;;4.87;3.70;;;10.60;1.00;11.40;102304.00;;;;5037779;28;20457;-84
2022/01/23 12:10:16;;;;;;;7.00;3.57;;;10.70;1.00;11.40;102320.00;;;;5040854;28;20476;-81
2022/01/23 12:12:49;;;;;;;7.23;4.20;;;10.70;1.00;11.40;102323.00;;;;5034357;28;20460;-83
2022/01/23 12:18:14;;;;;;;5.63;3.90;;;10.70;1.00;11.50;102307.00;;;;5033836;28;20445;-83
2022/01/23 12:20:44;;;;;;;6.00;3.40;;;10.70;1.00;11.70;102315.00;;;;5030972;28;20457;-82
2022/01/23 12:23:14;;;;;;;7.23;3.93;;;11.00;1.00;11.70;102313.00;;;;5030224;28;20481;-81
2022/01/23 12:25:46;;;;;;;4.40;3.10;;;11.00;1.00;11.90;102304.00;;;;5033828;28;20519;-81
2022/01/23 12:28:22;;;;;;;4.80;3.73;;;11.10;1.00;12.00;102310.00;;;;5033812;28;20460;-83
2022/01/23 12:30:54;;;;;;;6.73;3.60;;;11.30;1.00;12.20;102311.00;;;;5038055;28;20479;-82
2022/01/23 12:33:46;;;;;;;5.33;4.33;;;11.60;1.00;12.30;102306.00;;;;5031974;28;20563;-81
2022/01/23 12:36:29;;;;;;;5.70;4.30;;;11.80;1.00;12.30;102301.00;;;;5032426;28;20529;-82
2022/01/23 12:39:02;;;;;;;6.47;4.30;;;11.80;1.00;12.40;102309.00;;;;5034467;28;20682;-83
2022/01/23 12:41:33;;;;;;;5.57;3.80;;;11.80;1.00;12.20;102314.00;;;;5034043;28;20508;-82
2022/01/23 12:44:08;;;;;;;6.57;4.67;;;11.70;1.00;12.30;102319.00;;;;5029935;28;20504;-82
2022/01/23 12:46:40;;;;;;;6.63;3.77;;;11.80;1.00;12.20;102319.00;;;;5032945;28;20453;-81
2022/01/23 12:49:28;;;;;;;6.77;3.00;;;11.80;1.00;12.00;102303.00;;;;5033229;28;20461;-81
2022/01/23 12:52:17;;;;;;;2.60;1.70;;;11.50;1.00;11.90;102295.00;;;;5031738;28;20478;-80
2022/01/23 12:54:58;;;;;;;3.80;2.60;;;11.30;1.00;11.90;102309.00;;;;5035507;28;20838;-80
2022/01/23 12:57:35;;;;;;;3.87;2.20;;;11.40;1.00;11.70;102298.00;;;;5038062;28;20452;-80
2022/01/23 13:00:11;;;;;;;3.40;2.20;;;11.20;1.00;11.70;102303.00;;;;5044869;28;20460;-79
2022/01/23 13:02:44;;;;;;;3.20;1.87;;;11.20;1.00;11.70;102281.00;;;;5046372;28;20456;-80
2022/01/23 13:05:15;;;;;;;3.20;1.90;;;11.20;1.00;11.60;102301.00;;;;5042745;28;20450;-80
2022/01/23 13:08:01;;;;;;;4.67;2.10;;;11.10;1.00;11.60;102305.00;;;;5042612;28;20504;-80
2022/01/23 13:10:51;;;;;;;2.83;1.97;;;11.10;1.00;11.60;102284.00;;;;5055849;28;20500;-79
2022/01/23 13:13:34;;;;;;;4.97;2.60;;;11.00;1.00;11.60;102309.00;;;;5039602;28;20549;-81
2022/01/23 13:16:26;;;;;;;4.50;2.80;;;11.00;1.00;11.50;102305.00;;;;5034093;28;20476;-80
2022/01/23 13:30:47;;;;;;;5.40;4.23;;;10.50;1.00;11.10;102316.00;;;;5159777;27;20610;-83
2022/01/23 13:33:20;;;;;;;6.70;3.80;;;10.30;1.00;11.10;102316.00;;;;5145803;27;21826;-83
2022/01/23 13:35:52;;;;;;;5.07;3.30;;;10.30;1.00;11.00;102094.00;;;;5144252;28;20490;-83
2022/01/23 13:38:23;;;;;;;4.50;3.80;;;10.20;1.00;11.00;102320.00;;;;5140921;28;20444;-82
2022/01/23 13:40:59;;;;;;;5.90;4.13;;;10.30;1.00;10.90;102322.00;;;;5137264;28;20486;-83
2022/01/23 13:52:01;;;;;;;7.40;4.87;;;9.80;1.00;10.70;68614.00;;;;5125469;28;20461;-80
2022/01/23 13:57:40;;;;;;;3.90;2.60;;;9.90;1.00;10.40;102309.00;;;;5133040;27;20987;-79
2022/01/23 14:00:15;;;;;;;4.20;3.07;;;9.70;1.00;217.30;161166.00;;;;5123618;28;20480;-80
2022/01/23 14:02:48;;;;;;;4.13;2.80;;;9.60;1.00;10.50;68578.00;;;;5126533;28;20454;-78
2022/01/23 14:05:19;;;;;;;6.70;2.57;;;9.70;1.00;10.50;102301.00;;;;5141727;27;20502;-81
2022/01/23 14:07:51;;;;;;;4.63;2.47;;;9.60;1.00;10.50;102303.00;;;;5128216;28;20552;-81
2022/01/23 14:10:22;;;;;;;4.23;3.03;;;9.60;1.00;10.50;102307.00;;;;5145612;27;20496;-80
2022/01/23 14:12:54;;;;;;;5.50;3.17;;;9.80;1.00;10.50;102310.00;;;;5132893;27;20459;-81
2022/01/23 14:15:28;;;;;;;4.00;2.33;;;9.70;1.00;10.50;68593.00;;;;5129168;28;20556;-82
2022/01/23 14:18:02;;;;;;;4.63;2.60;;;9.70;1.00;10.50;102313.00;;;;5129699;28;20454;-85
2022/01/23 14:20:33;;;;;;;5.00;3.10;;;9.70;1.00;10.50;102311.00;;;;5134996;27;20472;-84
2022/01/23 14:23:12;;;;;;;5.07;3.60;;;9.80;1.00;10.50;68581.00;;;;5138671;28;21311;-83
2022/01/23 14:25:47;;;;;;;4.43;2.50;;;9.80;1.00;10.40;68575.00;;;;5136425;28;20455;-85